sensor_id;sensor_type;location;lat;lon;timestamp;pressure;altitude;pressure_sealevel;temperature;humidity
4123;BME280;2075;51.062;6.920;2023-08-01T00:00:00;-11667.00;;;-144.48;100.00
4123;BME280;2075;51.062;6.920;2023-08-01T00:02:45;-11667.00;;;-144.48;100.00
4123;BME280;2075;51.062;6.920;2023-08-01T00:05:30;-11667.00;;;-144.48;100.00
4123;BME280;2075;51.062;6.920;2023-08-01T00:08:16;-11667.00;;;-144.48;100.00
4123;BME280;2075;51.062;6.920;2023-08-01T00:11:01;-11667.00;;;-144.48;100.00
4123;BME280;2075;51.062;6.920;2023-08-01T00:13:48;-11667.00;;;-144.48;100.00
4123;BME280;2075;51.062;6.920;2023-08-01T00:16:34;-11667.00;;;-144.48;100.00
4123;BME280;2075;51.062;6.920;2023-08-01T00:19:19;-11667.00;;;-144.48;100.00
4123;BME280;2075;51.062;6.920;2023-08-01T00:22:05;-11667.00;;;-144.48;100.00
4123;BME280;2075;51.062;6.920;2023-08-01T00:24:50;-11667.00;;;-144.48;100.00
4123;BME280;2075;51.062;6.920;2023-08-01T00:27:36;-11667.00;;;-144.48;100.00
4123;BME280;2075;51.062;6.920;2023-08-01T00:30:23;-11667.00;;;-144.48;100.00
4123;BME280;2075;51.062;6.920;2023-08-01T00:33:08;-11667.00;;;-144.48;100.00
4123;BME280;2075;51.062;6.920;2023-08-01T00:35:54;-11667.00;;;-144.48;100.00
4123;BME280;2075;51.062;6.920;2023-08-01T00:38:39;-11667.00;;;-144.48;100.00
4123;BME280;2075;51.062;6.920;2023-08-01T00:41:27;-11667.00;;;-144.48;100.00
4123;BME280;2075;51.062;6.920;2023-08-01T00:44:12;-11667.00;;;-144.48;100.00
4123;BME280;2075;51.062;6.920;2023-08-01T00:46:59;-11667.00;;;-144.48;100.00
4123;BME280;2075;51.062;6.920;2023-08-01T00:49:44;-11667.00;;;-144.48;100.00
4123;BME280;2075;51.062;6.920;2023-08-01T00:52:30;-11667.00;;;-144.48;100.00
4123;BME280;2075;51.062;6.920;2023-08-01T00:55:16;-11667.00;;;-144.48;100.00
4123;BME280;2075;51.062;6.920;2023-08-01T00:58:01;-11667.00;;;-144.48;100.00
4123;BME280;2075;51.062;6.920;2023-08-01T01:00:47;-11667.00;;;-144.48;100.00
4123;BME280;2075;51.062;6.920;2023-08-01T01:03:34;-11667.00;;;-144.48;100.00
4123;BME280;2075;51.062;6.920;2023-08-01T01:06:21;-11667.00;;;-144.48;100.00
4123;BME280;2075;51.062;6.920;2023-08-01T01:09:15;-11667.00;;;-144.48;100.00
4123;BME280;2075;51.062;6.920;2023-08-01T01:12:01;-11667.00;;;-144.48;100.00
4123;BME280;2075;51.062;6.920;2023-08-01T01:14:48;-11667.00;;;-144.48;100.00
4123;BME280;2075;51.062;6.920;2023-08-01T01:17:33;-11667.00;;;-144.48;100.00
4123;BME280;2075;51.062;6.920;2023-08-01T01:20:22;-11667.00;;;-144.48;100.00
4123;BME280;2075;51.062;6.920;2023-08-01T01:23:09;-11667.00;;;-144.48;100.00
4123;BME280;2075;51.062;6.920;2023-08-01T01:25:56;-11667.00;;;-144.48;100.00
4123;BME280;2075;51.062;6.920;2023-08-01T01:28:42;-11667.00;;;-144.48;100.00
4123;BME280;2075;51.062;6.920;2023-08-01T01:31:28;-11667.00;;;-144.48;100.00
4123;BME280;2075;51.062;6.920;2023-08-01T01:34:14;-11667.00;;;-144.48;100.00
4123;BME280;2075;51.062;6.920;2023-08-01T01:37:00;-11667.00;;;-144.48;100.00
4123;BME280;2075;51.062;6.920;2023-08-01T01:39:48;-11667.00;;;-144.48;100.00
4123;BME280;2075;51.062;6.920;2023-08-01T01:42:34;-11667.00;;;-144.48;100.00
4123;BME280;2075;51.062;6.920;2023-08-01T01:45:19;-11667.00;;;-144.48;100.00
4123;BME280;2075;51.062;6.920;2023-08-01T01:48:05;-11667.00;;;-144.48;100.00
4123;BME280;2075;51.062;6.920;2023-08-01T01:50:50;-11667.00;;;-144.48;100.00
4123;BME280;2075;51.062;6.920;2023-08-01T01:53:35;-11667.00;;;-144.48;100.00
4123;BME280;2075;51.062;6.920;2023-08-01T01:56:22;-11667.00;;;-144.48;100.00
4123;BME280;2075;51.062;6.920;2023-08-01T01:59:08;-11667.00;;;-144.48;100.00
4123;BME280;2075;51.062;6.920;2023-08-01T02:01:53;-11667.00;;;-144.48;100.00
4123;BME280;2075;51.062;6.920;2023-08-01T02:04:38;-11667.00;;;-144.48;100.00
4123;BME280;2075;51.062;6.920;2023-08-01T02:07:25;-11667.00;;;-144.48;100.00
4123;BME280;2075;51.062;6.920;2023-08-01T02:10:10;-11667.00;;;-144.48;100.00
4123;BME280;2075;51.062;6.920;2023-08-01T02:12:57;-11667.00;;;-144.48;100.00
4123;BME280;2075;51.062;6.920;2023-08-01T02:15:43;-11667.00;;;-144.48;100.00
4123;BME280;2075;51.062;6.920;2023-08-01T02:18:28;-11667.00;;;-144.48;100.00
4123;BME280;2075;51.062;6.920;2023-08-01T02:21:14;-11667.00;;;-144.48;100.00
4123;BME280;2075;51.062;6.920;2023-08-01T02:23:59;-11667.00;;;-144.48;100.00
4123;BME280;2075;51.062;6.920;2023-08-01T02:26:45;-11667.00;;;-144.48;100.00
4123;BME280;2075;51.062;6.920;2023-08-01T02:29:31;-11667.00;;;-144.48;100.00
4123;BME280;2075;51.062;6.920;2023-08-01T02:32:17;-11667.00;;;-144.48;100.00
4123;BME280;2075;51.062;6.920;2023-08-01T02:35:03;-11667.00;;;-144.48;100.00
4123;BME280;2075;51.062;6.920;2023-08-01T02:37:49;-11667.00;;;-144.48;100.00
4123;BME280;2075;51.062;6.920;2023-08-01T02:40:34;-11667.00;;;-144.48;100.00
4123;BME280;2075;51.062;6.920;2023-08-01T02:43:20;-11667.00;;;-144.48;100.00
4123;BME280;2075;51.062;6.920;2023-08-01T02:46:06;-11667.00;;;-144.48;100.00
4123;BME280;2075;51.062;6.920;2023-08-01T02:48:52;-11667.00;;;-144.48;100.00
4123;BME280;2075;51.062;6.920;2023-08-01T02:51:37;-11667.00;;;-144.48;100.00
4123;BME280;2075;51.062;6.920;2023-08-01T02:54:23;-11667.00;;;-144.48;100.00
4123;BME280;2075;51.062;6.920;2023-08-01T02:57:08;-11667.00;;;-144.48;100.00
4123;BME280;2075;51.062;6.920;2023-08-01T02:59:53;-11667.00;;;-144.48;100.00
4123;BME280;2075;51.062;6.920;2023-08-01T03:02:40;-11667.00;;;-144.48;100.00
4123;BME280;2075;51.062;6.920;2023-08-01T03:05:26;-11667.00;;;-144.48;100.00
4123;BME280;2075;51.062;6.920;2023-08-01T03:08:11;-11667.00;;;-144.48;100.00
4123;BME280;2075;51.062;6.920;2023-08-01T03:10:57;-11667.00;;;-144.48;100.00
4123;BME280;2075;51.062;6.920;2023-08-01T03:13:43;-11667.00;;;-144.48;100.00
4123;BME280;2075;51.062;6.920;2023-08-01T03:16:28;-11667.00;;;-144.48;100.00
4123;BME280;2075;51.062;6.920;2023-08-01T03:19:15;-11667.00;;;-144.48;100.00
4123;BME280;2075;51.062;6.920;2023-08-01T03:22:00;-11667.00;;;-144.48;100.00
4123;BME280;2075;51.062;6.920;2023-08-01T03:24:46;-11667.00;;;-144.48;100.00
4123;BME280;2075;51.062;6.920;2023-08-01T03:27:31;-11667.00;;;-144.48;100.00
4123;BME280;2075;51.062;6.920;2023-08-01T03:30:17;-11667.00;;;-144.48;100.00
4123;BME280;2075;51.062;6.920;2023-08-01T03:33:03;-11667.00;;;-144.48;100.00
4123;BME280;2075;51.062;6.920;2023-08-01T03:35:49;-11667.00;;;-144.48;100.00
4123;BME280;2075;51.062;6.920;2023-08-01T03:38:36;-11667.00;;;-144.48;100.00
4123;BME280;2075;51.062;6.920;2023-08-01T03:41:22;-11667.00;;;-144.48;100.00
4123;BME280;2075;51.062;6.920;2023-08-01T03:44:07;-11667.00;;;-144.48;100.00
4123;BME280;2075;51.062;6.920;2023-08-01T03:46:52;-11667.00;;;-144.48;100.00
4123;BME280;2075;51.062;6.920;2023-08-01T03:49:39;-11667.00;;;-144.48;100.00
4123;BME280;2075;51.062;6.920;2023-08-01T03:52:26;-11667.00;;;-144.48;100.00
4123;BME280;2075;51.062;6.920;2023-08-01T03:55:11;-11667.00;;;-144.48;100.00
4123;BME280;2075;51.062;6.920;2023-08-01T03:57:56;-11667.00;;;-144.48;100.00
4123;BME280;2075;51.062;6.920;2023-08-01T04:00:42;-11667.00;;;-144.48;100.00
4123;BME280;2075;51.062;6.920;2023-08-01T04:03:27;-11667.00;;;-144.48;100.00
4123;BME280;2075;51.062;6.920;2023-08-01T04:06:13;-11667.00;;;-144.48;100.00
4123;BME280;2075;51.062;6.920;2023-08-01T04:09:00;-11667.00;;;-144.48;100.00
4123;BME280;2075;51.062;6.920;2023-08-01T04:11:46;-11667.00;;;-144.48;100.00
4123;BME280;2075;51.062;6.920;2023-08-01T04:14:32;-11667.00;;;-144.48;100.00
4123;BME280;2075;51.062;6.920;2023-08-01T04:17:17;-11667.00;;;-144.48;100.00
4123;BME280;2075;51.062;6.920;2023-08-01T04:20:03;-11667.00;;;-144.48;100.00
4123;BME280;2075;51.062;6.920;2023-08-01T04:22:49;-11667.00;;;-144.48;100.00
4123;BME280;2075;51.062;6.920;2023-08-01T04:25:36;-11667.00;;;-144.48;100.00
4123;BME280;2075;51.062;6.920;2023-08-01T04:28:21;-11667.00;;;-144.48;100.00
4123;BME280;2075;51.062;6.920;2023-08-01T04:31:07;-11667.00;;;-144.48;100.00
4123;BME280;2075;51.062;6.920;2023-08-01T04:33:52;-11667.00;;;-144.48;100.00
4123;BME280;2075;51.062;6.920;2023-08-01T04:36:37;-11667.00;;;-144.48;100.00
4123;BME280;2075;51.062;6.920;2023-08-01T04:39:23;-11667.00;;;-144.48;100.00
4123;BME280;2075;51.062;6.920;2023-08-01T04:42:10;-11667.00;;;-144.48;100.00
4123;BME280;2075;51.062;6.920;2023-08-01T04:44:55;-11413.53;;;-144.48;100.00
4123;BME280;2075;51.062;6.920;2023-08-01T04:47:40;-11665.53;;;-144.48;100.00
4123;BME280;2075;51.062;6.920;2023-08-01T04:50:26;-11665.53;;;-144.48;100.00
4123;BME280;2075;51.062;6.920;2023-08-01T04:53:11;-11413.53;;;-144.48;100.00
4123;BME280;2075;51.062;6.920;2023-08-01T04:55:57;-11161.53;;;-144.48;100.00
4123;BME280;2075;51.062;6.920;2023-08-01T04:58:43;-10657.44;;;-144.48;100.00
4123;BME280;2075;51.062;6.920;2023-08-01T05:01:29;-10657.44;;;-144.48;100.00
4123;BME280;2075;51.062;6.920;2023-08-01T05:04:14;-10909.50;;;-144.48;100.00
4123;BME280;2075;51.062;6.920;2023-08-01T05:06:59;-11413.53;;;-144.48;100.00
4123;BME280;2075;51.062;6.920;2023-08-01T05:09:45;-10909.50;;;-144.48;100.00
4123;BME280;2075;51.062;6.920;2023-08-01T05:12:30;-11161.53;;;-144.48;100.00
4123;BME280;2075;51.062;6.920;2023-08-01T05:15:17;-10909.50;;;-144.48;100.00
4123;BME280;2075;51.062;6.920;2023-08-01T05:18:03;-10405.38;;;-144.48;100.00
4123;BME280;2075;51.062;6.920;2023-08-01T05:20:48;-8640.34;;;-144.48;100.00
4123;BME280;2075;51.062;6.920;2023-08-01T05:23:33;-7126.69;;;-144.48;100.00
4123;BME280;2075;51.062;6.920;2023-08-01T05:26:19;-3086.84;;;-144.48;100.00
4123;BME280;2075;51.062;6.920;2023-08-01T05:29:04;3235.38;;;-144.48;100.00
4123;BME280;2075;51.062;6.920;2023-08-01T05:31:51;9062.59;;;-144.48;100.00
4123;BME280;2075;51.062;6.920;2023-08-01T05:34:36;16424.66;;;-144.48;100.00
4123;BME280;2075;51.062;6.920;2023-08-01T05:37:21;19730.22;;;-144.48;100.00
4123;BME280;2075;51.062;6.920;2023-08-01T05:40:09;15408.25;;;-144.48;100.00
4123;BME280;2075;51.062;6.920;2023-08-01T05:42:54;10838.16;;;-144.48;100.00
4123;BME280;2075;51.062;6.920;2023-08-01T05:45:40;8301.94;;;-144.48;100.00
4123;BME280;2075;51.062;6.920;2023-08-01T05:48:27;7034.56;;;-144.48;100.00
4123;BME280;2075;51.062;6.920;2023-08-01T05:51:12;5261.06;;;-144.48;100.00
4123;BME280;2075;51.062;6.920;2023-08-01T05:53:57;5007.78;;;-144.48;100.00
4123;BME280;2075;51.062;6.920;2023-08-01T05:56:43;5261.06;;;-144.48;100.00
4123;BME280;2075;51.062;6.920;2023-08-01T05:59:28;6021.03;;;-144.48;100.00
4123;BME280;2075;51.062;6.920;2023-08-01T06:02:13;5767.69;;;-144.48;100.00
4123;BME280;2075;51.062;6.920;2023-08-01T06:05:00;5261.06;;;-144.48;100.00
4123;BME280;2075;51.062;6.920;2023-08-01T06:07:45;7034.56;;;-144.48;100.00
4123;BME280;2075;51.062;6.920;2023-08-01T06:10:31;6781.16;;;-144.48;100.00
4123;BME280;2075;51.062;6.920;2023-08-01T06:13:16;13122.41;;;-144.48;100.00
4123;BME280;2075;51.062;6.920;2023-08-01T06:16:02;15916.41;;;-144.48;100.00
4123;BME280;2075;51.062;6.920;2023-08-01T06:18:47;21002.47;;;-144.48;100.00
4123;BME280;2075;51.062;6.920;2023-08-01T06:21:34;29411.56;;;-144.48;100.00
4123;BME280;2075;51.062;6.920;2023-08-01T06:24:19;45267.84;;;-144.48;100.00
4123;BME280;2075;51.062;6.920;2023-08-01T06:27:06;55280.38;;;-144.48;100.00
4123;BME280;2075;51.062;6.920;2023-08-01T06:29:51;80267.44;;;-144.48;100.00
4123;BME280;2075;51.062;6.920;2023-08-01T06:32:36;92334.06;;;-144.48;92.65
4123;BME280;2075;51.062;6.920;2023-08-01T06:35:22;92344.22;;;-144.48;71.70
4123;BME280;2075;51.062;6.920;2023-08-01T06:38:08;92122.91;;;-144.48;56.60
4123;BME280;2075;51.062;6.920;2023-08-01T06:40:54;92283.31;;;-144.48;60.09
4123;BME280;2075;51.062;6.920;2023-08-01T06:43:39;92632.56;;;-144.48;65.78
4123;BME280;2075;51.062;6.920;2023-08-01T06:46:25;92778.78;;;-144.48;74.33
4123;BME280;2075;51.062;6.920;2023-08-01T06:49:10;92819.41;;;-144.48;80.04
4123;BME280;2075;51.062;6.920;2023-08-01T06:51:55;92839.72;;;-144.48;80.63
4123;BME280;2075;51.062;6.920;2023-08-01T06:54:42;92900.63;;;-144.48;82.59
4123;BME280;2075;51.062;6.920;2023-08-01T06:57:28;92900.63;;;-144.48;85.50
4123;BME280;2075;51.062;6.920;2023-08-01T07:00:15;92849.84;;;-144.48;81.97
4123;BME280;2075;51.062;6.920;2023-08-01T07:03:00;92868.13;;;-144.48;80.75
4123;BME280;2075;51.062;6.920;2023-08-01T07:05:46;92902.66;;;-144.48;81.44
4123;BME280;2075;51.062;6.920;2023-08-01T07:08:31;92904.69;;;-144.48;83.02
4123;BME280;2075;51.062;6.920;2023-08-01T07:11:18;92677.25;;;-144.48;74.04
4123;BME280;2075;51.062;6.920;2023-08-01T07:14:04;92778.78;;;-144.48;73.75
4123;BME280;2075;51.062;6.920;2023-08-01T07:16:49;92734.09;;;-144.48;73.04
4123;BME280;2075;51.062;6.920;2023-08-01T07:19:35;92289.41;;;-144.48;59.88
4123;BME280;2075;51.062;6.920;2023-08-01T07:22:20;91810.22;;;-144.48;48.45
4123;BME280;2075;51.062;6.920;2023-08-01T07:25:06;91992.97;;;-144.48;49.32
4123;BME280;2075;51.062;6.920;2023-08-01T07:27:53;92258.94;;;-144.48;52.91
4123;BME280;2075;51.062;6.920;2023-08-01T07:30:38;92526.97;;;-144.48;59.93
4123;BME280;2075;51.062;6.920;2023-08-01T07:33:23;92411.22;;;-144.48;61.54
4123;BME280;2075;51.062;6.920;2023-08-01T07:36:09;92250.81;;;-144.48;53.68
4123;BME280;2075;51.062;6.920;2023-08-01T07:38:54;92441.69;;;-144.48;57.12
4123;BME280;2075;51.062;6.920;2023-08-01T07:41:40;92634.59;;;-144.48;62.64
4123;BME280;2075;51.062;6.920;2023-08-01T07:44:27;92327.97;;;-144.48;57.57
4123;BME280;2075;51.062;6.920;2023-08-01T07:47:13;92518.84;;;-144.48;59.13
4123;BME280;2075;51.062;6.920;2023-08-01T07:49:58;92723.94;;;-144.48;65.33
4123;BME280;2075;51.062;6.920;2023-08-01T07:52:44;92882.34;;;-144.48;70.00
4123;BME280;2075;51.062;6.920;2023-08-01T07:55:33;92925.00;;;-144.48;73.28
4123;BME280;2075;51.062;6.920;2023-08-01T07:58:18;92855.94;;;-144.48;71.75
4123;BME280;2075;51.062;6.920;2023-08-01T08:01:06;92894.53;;;-144.48;72.99
4123;BME280;2075;51.062;6.920;2023-08-01T08:03:51;92851.88;;;-144.48;72.71
4123;BME280;2075;51.062;6.920;2023-08-01T08:06:37;92821.44;;;-144.48;70.91
4123;BME280;2075;51.062;6.920;2023-08-01T08:09:22;92823.47;;;-144.48;68.46
4123;BME280;2075;51.062;6.920;2023-08-01T08:12:08;92713.78;;;-144.48;66.77
4123;BME280;2075;51.062;6.920;2023-08-01T08:14:53;92679.28;;;-144.48;66.48
4123;BME280;2075;51.062;6.920;2023-08-01T08:17:40;92750.34;;;-144.48;64.11
4123;BME280;2075;51.062;6.920;2023-08-01T08:20:26;92669.13;;;-144.48;63.92
4123;BME280;2075;51.062;6.920;2023-08-01T08:23:12;92872.19;;;-144.48;67.80
4123;BME280;2075;51.062;6.920;2023-08-01T08:25:58;92734.09;;;-144.48;64.85
4123;BME280;2075;51.062;6.920;2023-08-01T08:28:43;92803.16;;;-144.48;67.28
4123;BME280;2075;51.062;6.920;2023-08-01T08:31:29;92943.28;;;-144.48;71.48
4123;BME280;2075;51.062;6.920;2023-08-01T08:34:16;93205.28;;;-144.48;71.57
4123;BME280;2075;51.062;6.920;2023-08-01T08:37:01;92827.53;;;-144.48;70.05
4123;BME280;2075;51.062;6.920;2023-08-01T08:39:46;93030.59;;;-144.48;73.73
4123;BME280;2075;51.062;6.920;2023-08-01T08:42:33;93162.63;;;-144.48;79.13
4123;BME280;2075;51.062;6.920;2023-08-01T08:45:19;93099.66;;;-144.48;79.63
4123;BME280;2075;51.062;6.920;2023-08-01T08:48:09;92835.66;;;-144.48;70.18
4123;BME280;2075;51.062;6.920;2023-08-01T08:51:00;92742.22;;;-144.48;65.67
4123;BME280;2075;51.062;6.920;2023-08-01T08:53:48;92675.22;;;-144.48;61.30
4123;BME280;2075;51.062;6.920;2023-08-01T08:56:37;92161.47;;;-144.48;50.88
4123;BME280;2075;51.062;6.920;2023-08-01T08:59:27;92149.28;;;-144.48;49.10
4123;BME280;2075;51.062;6.920;2023-08-01T09:02:15;92516.81;;;-144.48;54.85
4123;BME280;2075;51.062;6.920;2023-08-01T09:05:01;92823.47;;;-144.48;64.22
4123;BME280;2075;51.062;6.920;2023-08-01T09:07:50;92957.50;;;-144.48;71.99
4123;BME280;2075;51.062;6.920;2023-08-01T09:10:36;92585.88;;;-144.48;62.22
4123;BME280;2075;51.062;6.920;2023-08-01T09:13:22;92114.78;;;-144.48;50.10
4123;BME280;2075;51.062;6.920;2023-08-01T09:16:08;92234.56;;;-144.48;51.23
4123;BME280;2075;51.062;6.920;2023-08-01T09:18:55;92342.19;;;-144.48;50.74
4123;BME280;2075;51.062;6.920;2023-08-01T09:21:40;92234.56;;;-144.48;49.77
4123;BME280;2075;51.062;6.920;2023-08-01T09:24:27;92033.56;;;-144.48;48.84
4123;BME280;2075;51.062;6.920;2023-08-01T09:27:13;92198.03;;;-144.48;48.14
4123;BME280;2075;51.062;6.920;2023-08-01T09:30:05;92457.94;;;-144.48;54.06
4123;BME280;2075;51.062;6.920;2023-08-01T09:32:52;92725.97;;;-144.48;60.25
4123;BME280;2075;51.062;6.920;2023-08-01T09:35:38;92719.88;;;-144.48;62.68
4123;BME280;2075;51.062;6.920;2023-08-01T09:38:24;92624.44;;;-144.48;60.80
4123;BME280;2075;51.062;6.920;2023-08-01T09:41:18;92476.22;;;-144.48;58.17
4123;BME280;2075;51.062;6.920;2023-08-01T09:44:04;92533.06;;;-144.48;57.77
4123;BME280;2075;51.062;6.920;2023-08-01T09:46:55;92478.25;;;-144.48;57.63
4123;BME280;2075;51.062;6.920;2023-08-01T09:49:48;92496.50;;;-144.48;56.63
4123;BME280;2075;51.062;6.920;2023-08-01T09:52:34;92545.25;;;-144.48;55.12
4123;BME280;2075;51.062;6.920;2023-08-01T09:55:25;92433.56;;;-144.48;55.08
4123;BME280;2075;51.062;6.920;2023-08-01T09:58:13;92397.00;;;-144.48;54.25
4123;BME280;2075;51.062;6.920;2023-08-01T10:00:59;92319.84;;;-144.48;51.76
4123;BME280;2075;51.062;6.920;2023-08-01T10:03:47;92287.38;;;-144.48;50.83
4123;BME280;2075;51.062;6.920;2023-08-01T10:06:35;92417.31;;;-144.48;51.38
4123;BME280;2075;51.062;6.920;2023-08-01T10:09:21;92474.19;;;-144.48;52.62
4123;BME280;2075;51.062;6.920;2023-08-01T10:12:09;92551.34;;;-144.48;52.94
4123;BME280;2075;51.062;6.920;2023-08-01T10:15:00;92496.50;;;-144.48;52.75
4123;BME280;2075;51.062;6.920;2023-08-01T10:17:46;92401.06;;;-144.48;51.56
4123;BME280;2075;51.062;6.920;2023-08-01T10:20:32;92419.34;;;-144.48;51.64
4123;BME280;2075;51.062;6.920;2023-08-01T10:23:19;92392.97;;;-144.48;50.16
4123;BME280;2075;51.062;6.920;2023-08-01T10:26:06;92502.59;;;-144.48;52.84
4123;BME280;2075;51.062;6.920;2023-08-01T10:28:52;92453.88;;;-144.48;50.82
4123;BME280;2075;51.062;6.920;2023-08-01T10:31:50;92413.25;;;-144.48;51.27
4123;BME280;2075;51.062;6.920;2023-08-01T10:34:36;92506.66;;;-144.48;51.82
4123;BME280;2075;51.062;6.920;2023-08-01T10:37:21;92531.03;;;-144.48;54.54
4123;BME280;2075;51.062;6.920;2023-08-01T10:40:07;92453.88;;;-144.48;55.57
4123;BME280;2075;51.062;6.920;2023-08-01T10:42:53;92581.81;;;-144.48;53.37
4123;BME280;2075;51.062;6.920;2023-08-01T10:45:39;92315.78;;;-144.48;49.32
4123;BME280;2075;51.062;6.920;2023-08-01T10:48:30;92356.41;;;-144.48;49.41
4123;BME280;2075;51.062;6.920;2023-08-01T10:51:16;92407.16;;;-144.48;48.59
4123;BME280;2075;51.062;6.920;2023-08-01T10:54:02;92401.06;;;-144.48;47.50
4123;BME280;2075;51.062;6.920;2023-08-01T10:56:49;92401.06;;;-144.48;47.54
4123;BME280;2075;51.062;6.920;2023-08-01T10:59:35;92368.59;;;-144.48;46.89
4123;BME280;2075;51.062;6.920;2023-08-01T11:02:21;92687.41;;;-144.48;47.40
4123;BME280;2075;51.062;6.920;2023-08-01T11:05:09;92407.16;;;-144.48;48.35
4123;BME280;2075;51.062;6.920;2023-08-01T11:07:57;92596.00;;;-144.48;51.96
4123;BME280;2075;51.062;6.920;2023-08-01T11:10:49;92673.19;;;-144.48;57.10
4123;BME280;2075;51.062;6.920;2023-08-01T11:13:34;92721.91;;;-144.48;58.17
4123;BME280;2075;51.062;6.920;2023-08-01T11:16:20;92681.31;;;-144.48;57.30
4123;BME280;2075;51.062;6.920;2023-08-01T11:19:06;92600.06;;;-144.48;55.70
4123;BME280;2075;51.062;6.920;2023-08-01T11:22:09;92437.63;;;-144.48;50.41
4123;BME280;2075;51.062;6.920;2023-08-01T11:24:54;92263.00;;;-144.48;46.73
4123;BME280;2075;51.062;6.920;2023-08-01T11:27:40;92319.84;;;-144.48;45.58
4123;BME280;2075;51.062;6.920;2023-08-01T11:30:30;92344.22;;;-144.48;45.03
4123;BME280;2075;51.062;6.920;2023-08-01T11:33:17;92344.22;;;-144.48;45.77
4123;BME280;2075;51.062;6.920;2023-08-01T11:36:05;92317.81;;;-144.48;45.01
4123;BME280;2075;51.062;6.920;2023-08-01T11:38:52;92226.44;;;-144.48;44.34
4123;BME280;2075;51.062;6.920;2023-08-01T11:41:38;92443.72;;;-144.48;44.57
4123;BME280;2075;51.062;6.920;2023-08-01T11:44:24;92242.69;;;-144.48;44.79
4123;BME280;2075;51.062;6.920;2023-08-01T11:47:12;92096.50;;;-144.48;42.78
4123;BME280;2075;51.062;6.920;2023-08-01T11:49:58;92098.53;;;-144.48;42.31
4123;BME280;2075;51.062;6.920;2023-08-01T11:52:46;92244.72;;;-144.48;43.34
4123;BME280;2075;51.062;6.920;2023-08-01T11:55:34;92437.63;;;-144.48;44.82
4123;BME280;2075;51.062;6.920;2023-08-01T11:58:28;92559.47;;;-144.48;46.89
4123;BME280;2075;51.062;6.920;2023-08-01T12:01:14;92634.59;;;-144.48;48.51
4123;BME280;2075;51.062;6.920;2023-08-01T12:04:00;92616.31;;;-144.48;50.22
4123;BME280;2075;51.062;6.920;2023-08-01T12:06:45;92640.69;;;-144.48;51.26
4123;BME280;2075;51.062;6.920;2023-08-01T12:09:32;92600.06;;;-144.48;51.29
4123;BME280;2075;51.062;6.920;2023-08-01T12:12:18;92725.97;;;-144.48;52.81
4123;BME280;2075;51.062;6.920;2023-08-01T12:15:04;92717.84;;;-144.48;56.79
4123;BME280;2075;51.062;6.920;2023-08-01T12:17:50;92764.56;;;-144.48;58.30
4123;BME280;2075;51.062;6.920;2023-08-01T12:20:36;92803.16;;;-144.48;60.04
4123;BME280;2075;51.062;6.920;2023-08-01T12:23:24;92754.41;;;-144.48;60.68
4123;BME280;2075;51.062;6.920;2023-08-01T12:26:10;92681.31;;;-144.48;58.25
4123;BME280;2075;51.062;6.920;2023-08-01T12:28:57;92782.84;;;-144.48;59.55
4123;BME280;2075;51.062;6.920;2023-08-01T12:31:42;92766.59;;;-144.48;61.20
4123;BME280;2075;51.062;6.920;2023-08-01T12:34:30;92862.03;;;-144.48;60.23
4123;BME280;2075;51.062;6.920;2023-08-01T12:37:15;92892.50;;;-144.48;63.06
4123;BME280;2075;51.062;6.920;2023-08-01T12:40:01;92987.97;;;-144.48;70.70
4123;BME280;2075;51.062;6.920;2023-08-01T12:42:47;92951.41;;;-144.48;80.31
4123;BME280;2075;51.062;6.920;2023-08-01T12:45:34;92959.53;;;-144.48;80.14
4123;BME280;2075;51.062;6.920;2023-08-01T12:48:19;92884.38;;;-144.48;80.50
4123;BME280;2075;51.062;6.920;2023-08-01T12:51:05;92898.59;;;-144.48;80.30
4123;BME280;2075;51.062;6.920;2023-08-01T12:53:51;92847.81;;;-144.48;80.69
4123;BME280;2075;51.062;6.920;2023-08-01T12:56:37;92973.75;;;-144.48;82.61
4123;BME280;2075;51.062;6.920;2023-08-01T12:59:22;92971.72;;;-144.48;88.95
4123;BME280;2075;51.062;6.920;2023-08-01T13:02:09;92853.94;;;-144.48;89.42
4123;BME280;2075;51.062;6.920;2023-08-01T13:04:55;92823.47;;;-144.48;86.98
4123;BME280;2075;51.062;6.920;2023-08-01T13:07:40;92790.97;;;-144.48;87.46
4123;BME280;2075;51.062;6.920;2023-08-01T13:10:29;92636.63;;;-144.48;93.11
4123;BME280;2075;51.062;6.920;2023-08-01T13:13:14;74905.47;;;-144.48;100.00
4123;BME280;2075;51.062;6.920;2023-08-01T13:16:00;20493.53;;;-144.48;100.00
4123;BME280;2075;51.062;6.920;2023-08-01T13:18:47;16424.66;;;-144.48;100.00
4123;BME280;2075;51.062;6.920;2023-08-01T13:21:33;28646.22;;;-144.48;100.00
4123;BME280;2075;51.062;6.920;2023-08-01T13:24:19;76368.47;;;-144.48;99.72
4123;BME280;2075;51.062;6.920;2023-08-01T13:27:05;91879.25;;;-144.48;92.58
4123;BME280;2075;51.062;6.920;2023-08-01T13:29:53;92594.00;;;-144.48;89.26
4123;BME280;2075;51.062;6.920;2023-08-01T13:32:38;92732.06;;;-144.48;88.85
4123;BME280;2075;51.062;6.920;2023-08-01T13:35:25;92784.88;;;-144.48;90.31
4123;BME280;2075;51.062;6.920;2023-08-01T13:38:11;92555.41;;;-144.48;90.34
4123;BME280;2075;51.062;6.920;2023-08-01T13:40:59;92198.03;;;-144.48;91.34
4123;BME280;2075;51.062;6.920;2023-08-01T13:43:44;92496.50;;;-144.48;89.46
4123;BME280;2075;51.062;6.920;2023-08-01T13:46:30;92764.56;;;-144.48;85.58
4123;BME280;2075;51.062;6.920;2023-08-01T13:49:15;92673.19;;;-144.48;82.64
4123;BME280;2075;51.062;6.920;2023-08-01T13:52:03;92693.50;;;-144.48;82.37
4123;BME280;2075;51.062;6.920;2023-08-01T13:54:49;92394.97;;;-144.48;84.28
4123;BME280;2075;51.062;6.920;2023-08-01T13:57:35;92697.56;;;-144.48;80.26
4123;BME280;2075;51.062;6.920;2023-08-01T14:00:20;92608.19;;;-144.48;83.92
4123;BME280;2075;51.062;6.920;2023-08-01T14:03:06;92671.16;;;-144.48;79.32
4123;BME280;2075;51.062;6.920;2023-08-01T14:05:51;92616.31;;;-144.48;77.73
4123;BME280;2075;51.062;6.920;2023-08-01T14:08:39;92522.91;;;-144.48;74.09
4123;BME280;2075;51.062;6.920;2023-08-01T14:11:25;92502.59;;;-144.48;76.95
4123;BME280;2075;51.062;6.920;2023-08-01T14:14:20;92455.91;;;-144.48;76.47
4123;BME280;2075;51.062;6.920;2023-08-01T14:17:07;92425.44;;;-144.48;74.76
4123;BME280;2075;51.062;6.920;2023-08-01T14:19:53;92305.63;;;-144.48;75.37
4123;BME280;2075;51.062;6.920;2023-08-01T14:22:41;92327.97;;;-144.48;74.95
4123;BME280;2075;51.062;6.920;2023-08-01T14:25:28;92340.16;;;-144.48;73.49
4123;BME280;2075;51.062;6.920;2023-08-01T14:28:14;92315.78;;;-144.48;73.20
4123;BME280;2075;51.062;6.920;2023-08-01T14:31:02;92323.91;;;-144.48;72.59